createdAt,value
2022-08-05T00:02:27.677Z,56.22
2022-08-05T00:04:56.124Z,56.08
2022-08-05T00:07:27.462Z,55.88
2022-08-05T00:10:10.922Z,56.02
2022-08-05T00:12:55.834Z,55.97
2022-08-05T00:15:55.132Z,55.84
2022-08-05T00:18:22.459Z,56.31
2022-08-05T00:20:50.772Z,56.22
2022-08-05T00:23:44.301Z,55.94
2022-08-05T00:26:06.025Z,56.13
2022-08-05T00:28:33.149Z,56.25
2022-08-05T00:31:04.495Z,56.42
2022-08-05T00:34:57.051Z,56.35
2022-08-05T00:37:13.257Z,56.40
2022-08-05T00:39:13.932Z,56.44
2022-08-05T00:41:51.475Z,56.59
2022-08-05T00:44:23.203Z,56.45
2022-08-05T00:46:54.145Z,56.19
2022-08-05T00:49:32.824Z,56.15
2022-08-05T00:52:11.369Z,56.32
2022-08-05T00:54:39.011Z,56.25
2022-08-05T00:57:05.984Z,56.21
2022-08-05T00:59:34.508Z,56.81
2022-08-05T01:02:11.428Z,56.40
2022-08-05T01:04:38.322Z,56.69
2022-08-05T01:07:13.580Z,56.73
2022-08-05T01:09:42.134Z,57.06
2022-08-05T01:12:20.759Z,57.14
2022-08-05T01:15:04.040Z,57.04
2022-08-05T01:17:53.712Z,57.12
2022-08-05T01:21:02.981Z,57.09
2022-08-05T01:23:35.466Z,57.03
2022-08-05T01:26:27.290Z,56.84
2022-08-05T01:29:22.879Z,56.95
2022-08-05T01:31:59.273Z,57.24
2022-08-05T01:34:31.236Z,57.00
2022-08-05T01:37:24.652Z,56.83
2022-08-05T01:39:58.801Z,56.40
2022-08-05T01:42:28.047Z,56.10
2022-08-05T01:45:02.029Z,55.93
2022-08-05T01:47:39.288Z,56.12
2022-08-05T01:50:15.718Z,56.33
2022-08-05T01:52:50.154Z,56.65
2022-08-05T01:55:20.870Z,57.03
2022-08-05T01:58:12.461Z,57.39
2022-08-05T02:00:39.970Z,57.19
2022-08-05T02:03:28.878Z,57.51
2022-08-05T02:06:03.345Z,57.77
2022-08-05T02:08:31.611Z,57.57
2022-08-05T02:11:23.909Z,57.75
2022-08-05T02:14:12.602Z,57.81
2022-08-05T02:16:46.785Z,57.71
2022-08-05T02:19:28.739Z,57.71
2022-08-05T02:22:25.741Z,57.32
2022-08-05T02:25:02.173Z,57.53
2022-08-05T02:27:58.018Z,57.80
2022-08-05T02:30:20.928Z,57.78
2022-08-05T02:32:51.933Z,57.64
2022-08-05T02:35:27.942Z,58.08
2022-08-05T02:38:00.422Z,57.93
2022-08-05T02:40:30.321Z,57.90
2022-08-05T02:42:59.395Z,57.61
2022-08-05T02:45:28.392Z,57.70
2022-08-05T02:48:07.608Z,57.34
2022-08-05T02:50:46.867Z,57.31
2022-08-05T02:53:18.839Z,57.77
2022-08-05T02:55:48.331Z,57.81
2022-08-05T02:58:27.429Z,57.87
2022-08-05T03:00:56.825Z,57.66
2022-08-05T03:03:24.282Z,57.53
2022-08-05T03:06:54.541Z,57.46
2022-08-05T03:08:42.564Z,57.83
2022-08-05T03:11:55.743Z,57.52
2022-08-05T03:14:13.455Z,57.65
2022-08-05T03:16:40.866Z,57.44
2022-08-05T03:19:12.821Z,57.82
2022-08-05T03:21:48.731Z,57.63
2022-08-05T03:24:23.592Z,57.62
2022-08-05T03:26:57.670Z,57.49
2022-08-05T03:29:24.734Z,57.52
2022-08-05T03:32:14.465Z,57.59
2022-08-05T03:34:42.743Z,57.62
2022-08-05T03:37:18.683Z,57.16
2022-08-05T03:40:01.101Z,57.37
2022-08-05T03:42:32.411Z,57.38
2022-08-05T03:45:01.505Z,57.51
2022-08-05T03:47:35.361Z,57.36
2022-08-05T03:50:02.490Z,57.12
2022-08-05T03:52:38.697Z,56.96
2022-08-05T03:56:06.227Z,57.39
2022-08-05T03:58:19.092Z,57.33
2022-08-05T04:00:51.480Z,57.23
2022-08-05T04:03:28.641Z,57.51
2022-08-05T04:05:59.233Z,57.54
2022-08-05T04:08:36.584Z,57.58
2022-08-05T04:11:06.253Z,57.58
2022-08-05T04:13:50.155Z,57.53
2022-08-05T04:16:24.211Z,57.74
2022-08-05T04:18:54.368Z,57.50
2022-08-05T04:22:10.079Z,57.76
2022-08-05T04:24:09.063Z,57.66
2022-08-05T04:26:46.319Z,57.71
2022-08-05T04:29:13.598Z,57.66
2022-08-05T04:31:41.368Z,57.25
2022-08-05T04:34:18.424Z,57.46
2022-08-05T04:36:50.063Z,57.50
2022-08-05T04:39:18.871Z,57.52
2022-08-05T04:41:48.034Z,57.13
2022-08-05T04:44:21.055Z,57.21
2022-08-05T04:46:51.171Z,57.63
2022-08-05T04:49:24.592Z,57.51
2022-08-05T04:52:00.167Z,55.37
2022-08-05T04:54:27.648Z,52.47
2022-08-05T04:56:58.949Z,52.01
2022-08-05T04:59:38.830Z,51.88
2022-08-05T05:02:36.620Z,51.76
2022-08-05T05:05:02.144Z,51.55
2022-08-05T05:07:32.219Z,51.73
2022-08-05T05:10:02.247Z,52.50
2022-08-05T05:12:29.819Z,54.14
2022-08-05T05:14:56.689Z,55.06
2022-08-05T05:17:55.378Z,55.01
2022-08-05T05:20:12.284Z,55.45
2022-08-05T05:22:41.020Z,55.48
2022-08-05T05:25:17.115Z,55.78
2022-08-05T05:27:53.795Z,55.97
2022-08-05T05:30:29.226Z,56.17
2022-08-05T05:33:00.856Z,56.02
2022-08-05T05:35:38.083Z,56.19
2022-08-05T05:38:09.481Z,56.67
2022-08-05T05:40:43.826Z,56.56
2022-08-05T05:43:16.390Z,56.26
2022-08-05T05:45:54.971Z,56.37
2022-08-05T05:48:27.292Z,56.24
2022-08-05T05:50:54.848Z,56.36
2022-08-05T05:53:22.889Z,56.44
2022-08-05T05:55:51.961Z,56.31
2022-08-05T05:58:31.691Z,56.29
2022-08-05T06:01:04.905Z,56.39
2022-08-05T06:04:00.948Z,56.39
2022-08-05T06:06:27.968Z,56.15
2022-08-05T06:08:58.519Z,56.37
2022-08-05T06:11:26.042Z,56.34
2022-08-05T06:13:54.063Z,56.54
2022-08-05T06:16:28.240Z,56.66
2022-08-05T06:19:01.785Z,56.59
2022-08-05T06:21:36.880Z,56.69
2022-08-05T06:24:07.689Z,56.27
2022-08-05T06:26:38.624Z,55.86
2022-08-05T06:29:06.917Z,55.95
2022-08-05T06:31:51.885Z,55.68
2022-08-05T06:34:20.354Z,55.72
2022-08-05T06:36:56.822Z,55.32
2022-08-05T06:39:26.926Z,53.32
2022-08-05T06:41:54.787Z,53.16
2022-08-05T06:44:21.993Z,54.52
2022-08-05T06:46:50.919Z,53.56
2022-08-05T06:49:18.953Z,53.03
2022-08-05T06:51:48.861Z,54.54
2022-08-05T06:54:18.134Z,54.99
2022-08-05T06:56:54.671Z,55.64
2022-08-05T06:59:22.114Z,56.61
2022-08-05T07:01:53.009Z,56.74
2022-08-05T07:04:20.102Z,56.77
2022-08-05T07:06:46.936Z,56.61
2022-08-05T07:09:17.405Z,56.59
2022-08-05T07:11:51.403Z,56.71
2022-08-05T07:14:37.474Z,56.82
2022-08-05T07:18:01.760Z,56.79
2022-08-05T07:22:42.004Z,56.82
2022-08-05T07:25:24.050Z,56.71
2022-08-05T07:28:02.258Z,56.61
2022-08-05T07:30:39.179Z,56.85
2022-08-05T07:33:10.391Z,56.89
2022-08-05T07:36:05.298Z,57.00
2022-08-05T07:38:34.661Z,56.96
2022-08-05T07:42:09.547Z,57.13
2022-08-05T07:43:58.980Z,57.02
2022-08-05T07:46:27.466Z,57.22
2022-08-05T07:49:01.909Z,57.26
2022-08-05T07:51:36.723Z,56.96
2022-08-05T07:54:05.493Z,57.03
2022-08-05T07:57:00.033Z,57.11
2022-08-05T07:59:21.890Z,56.96
2022-08-05T08:01:52.195Z,56.83
2022-08-05T08:04:38.095Z,56.73
2022-08-05T08:07:16.394Z,57.18
2022-08-05T08:09:45.488Z,56.93
2022-08-05T08:12:35.639Z,56.60
2022-08-05T08:15:04.554Z,56.32
2022-08-05T08:17:32.742Z,56.23
2022-08-05T08:20:22.441Z,56.17
2022-08-05T08:22:59.630Z,56.04
2022-08-05T08:26:00.457Z,55.87
2022-08-05T08:28:35.702Z,56.19
2022-08-05T08:31:04.949Z,55.81
2022-08-05T08:33:37.492Z,55.95
2022-08-05T08:36:29.706Z,55.84
2022-08-05T08:38:55.940Z,55.72
2022-08-05T08:41:26.275Z,55.63
2022-08-05T08:45:18.348Z,55.47
2022-08-05T08:47:47.423Z,55.49
2022-08-05T08:50:13.020Z,55.63
2022-08-05T08:52:51.626Z,55.17
2022-08-05T08:56:01.997Z,55.31
2022-08-05T08:58:13.041Z,55.36
2022-08-05T09:00:40.963Z,55.60
2022-08-05T09:03:10.008Z,55.44
2022-08-05T09:05:38.355Z,55.42
2022-08-05T09:08:27.510Z,55.22
2022-08-05T09:10:57.687Z,55.34
2022-08-05T09:13:24.904Z,55.12
2022-08-05T09:15:59.118Z,55.31
2022-08-05T09:18:26.759Z,55.51
2022-08-05T09:20:53.725Z,56.06
2022-08-05T09:23:22.893Z,56.13
2022-08-05T09:26:08.561Z,53.83
2022-08-05T09:28:38.499Z,51.30
2022-08-05T09:31:22.151Z,52.68
2022-08-05T09:34:04.869Z,54.71
2022-08-05T09:36:56.001Z,55.70
2022-08-05T09:39:44.921Z,56.45
2022-08-05T09:42:23.219Z,56.47
2022-08-05T09:44:56.369Z,56.15
2022-08-05T09:47:26.214Z,56.87
2022-08-05T09:50:01.226Z,57.13
2022-08-05T09:52:36.652Z,57.37
2022-08-05T09:55:56.991Z,57.32
2022-08-05T09:58:00.412Z,58.00
2022-08-05T10:00:30.626Z,57.86
2022-08-05T10:02:59.034Z,57.64
2022-08-05T10:05:28.800Z,57.86
2022-08-05T10:08:35.539Z,57.83
2022-08-05T10:10:54.708Z,57.74
2022-08-05T10:13:47.144Z,57.40
2022-08-05T10:16:42.056Z,57.46
2022-08-05T10:19:23.862Z,57.50
2022-08-05T10:22:09.167Z,57.80
2022-08-05T10:24:46.007Z,57.47
2022-08-05T10:27:16.695Z,57.45
2022-08-05T10:30:06.937Z,57.47
2022-08-05T10:32:52.878Z,57.37
2022-08-05T10:35:19.977Z,57.07
2022-08-05T10:38:02.006Z,57.45
2022-08-05T10:40:40.490Z,57.23
2022-08-05T10:43:37.675Z,57.50
2022-08-05T10:46:08.273Z,57.50
2022-08-05T10:48:56.933Z,57.35
2022-08-05T10:51:28.909Z,57.21
2022-08-05T10:54:01.837Z,57.40
2022-08-05T10:56:46.069Z,57.33
2022-08-05T11:00:02.640Z,57.09
2022-08-05T11:02:38.088Z,57.15
2022-08-05T11:05:09.442Z,57.09
2022-08-05T11:08:02.693Z,57.34
2022-08-05T11:10:37.332Z,57.06
2022-08-05T11:13:06.981Z,57.18
2022-08-05T11:15:59.475Z,57.02
2022-08-05T11:18:32.473Z,57.31
2022-08-05T11:21:11.459Z,53.89
2022-08-05T11:24:05.470Z,51.83
2022-08-05T11:26:43.322Z,50.39
2022-08-05T11:29:41.267Z,49.57
2022-08-05T11:32:30.459Z,48.83
2022-08-05T11:34:57.886Z,47.67
2022-08-05T11:38:37.398Z,46.86
2022-08-05T11:41:03.655Z,46.99
2022-08-05T11:44:06.730Z,47.15
2022-08-05T11:47:10.102Z,50.13
2022-08-05T11:49:25.726Z,47.93
2022-08-05T11:51:54.463Z,47.07
2022-08-05T11:54:33.321Z,46.82
2022-08-05T11:57:08.269Z,46.64
2022-08-05T11:59:50.252Z,46.77
2022-08-05T12:02:23.901Z,46.62
2022-08-05T12:05:00.072Z,46.47
2022-08-05T12:08:08.484Z,48.18
2022-08-05T12:10:24.863Z,51.46
2022-08-05T12:13:14.622Z,52.45
2022-08-05T12:15:49.734Z,52.73
2022-08-05T12:18:32.835Z,53.15
2022-08-05T12:21:15.148Z,53.58
2022-08-05T12:23:58.084Z,53.71
2022-08-05T12:26:44.293Z,54.11
2022-08-05T12:29:23.120Z,54.13
2022-08-05T12:31:55.711Z,54.03
2022-08-05T12:34:28.791Z,54.18
2022-08-05T12:36:58.354Z,54.35
2022-08-05T12:39:34.322Z,54.32
2022-08-05T12:42:09.457Z,52.86
2022-08-05T12:44:43.081Z,53.68
2022-08-05T12:47:12.323Z,54.35
2022-08-05T12:50:03.355Z,52.92
2022-08-05T12:52:38.782Z,52.45
2022-08-05T12:55:26.325Z,52.24
2022-08-05T12:58:49.607Z,49.20
2022-08-05T13:02:02.289Z,51.20
2022-08-05T13:03:38.942Z,52.46
2022-08-05T13:06:20.059Z,51.36
2022-08-05T13:08:51.821Z,49.01
2022-08-05T13:11:35.076Z,52.59
2022-08-05T13:14:36.199Z,52.31
2022-08-05T13:17:08.561Z,52.81
2022-08-05T13:19:47.287Z,52.96
2022-08-05T13:22:27.681Z,52.58
2022-08-05T13:24:57.962Z,52.29
2022-08-05T13:27:37.544Z,52.36
2022-08-05T13:30:32.828Z,52.67
2022-08-05T13:32:56.486Z,52.54
2022-08-05T13:35:31.457Z,51.85
2022-08-05T13:38:20.238Z,52.16
2022-08-05T13:40:57.518Z,50.28
2022-08-05T13:43:24.575Z,50.66
2022-08-05T13:46:11.925Z,49.80
2022-08-05T13:49:24.940Z,51.73
2022-08-05T13:51:52.348Z,51.99
2022-08-05T13:54:24.997Z,52.15
2022-08-05T13:56:52.889Z,51.77
2022-08-05T13:59:24.098Z,52.01
2022-08-05T14:01:56.471Z,51.87
2022-08-05T14:04:43.099Z,51.16
2022-08-05T14:07:57.027Z,50.72
2022-08-05T14:10:09.346Z,50.45
2022-08-05T14:12:37.065Z,50.37
2022-08-05T14:15:05.877Z,50.61
2022-08-05T14:17:52.403Z,50.41
2022-08-05T14:20:27.124Z,50.01
2022-08-05T14:22:54.699Z,50.61
2022-08-05T14:25:28.435Z,50.21
2022-08-05T14:27:58.720Z,49.90
2022-08-05T14:30:27.990Z,50.44
2022-08-05T14:32:56.785Z,50.03
2022-08-05T14:35:37.426Z,49.05
2022-08-05T14:38:32.558Z,49.50
2022-08-05T14:40:58.673Z,49.85
2022-08-05T14:43:58.883Z,50.05
2022-08-05T14:46:12.720Z,50.27
2022-08-05T14:48:39.858Z,50.91
2022-08-05T14:51:06.851Z,51.25
2022-08-05T14:53:44.196Z,51.62
2022-08-05T14:56:11.840Z,51.47
2022-08-05T14:58:47.520Z,51.61
2022-08-05T15:01:47.287Z,52.05
2022-08-05T15:04:11.429Z,52.49
2022-08-05T15:06:40.412Z,52.31
2022-08-05T15:09:07.804Z,52.51
2022-08-05T15:11:52.407Z,52.59
2022-08-05T15:14:34.703Z,52.73
2022-08-05T15:17:45.058Z,53.11
2022-08-05T15:19:56.575Z,52.88
2022-08-05T15:22:27.017Z,53.13
2022-08-05T15:24:59.503Z,52.90
2022-08-05T15:27:32.029Z,53.28
2022-08-05T15:30:04.282Z,53.72
2022-08-05T15:32:31.948Z,53.59
2022-08-05T15:34:58.888Z,53.42
2022-08-05T15:38:09.094Z,53.28
2022-08-05T15:41:03.072Z,53.31
2022-08-05T15:43:12.627Z,52.57
2022-08-05T15:45:46.852Z,51.71
2022-08-05T15:48:15.308Z,52.13
2022-08-05T15:50:43.826Z,51.29
2022-08-05T15:53:13.206Z,51.36
2022-08-05T15:56:04.118Z,50.74
2022-08-05T15:58:35.533Z,49.10
2022-08-05T16:01:16.682Z,50.66
2022-08-05T16:03:48.466Z,50.92
2022-08-05T16:06:19.940Z,50.74
2022-08-05T16:08:48.350Z,50.69
2022-08-05T16:11:21.096Z,51.17
2022-08-05T16:14:05.929Z,50.07
2022-08-05T16:16:33.441Z,50.81
2022-08-05T16:19:00.461Z,51.21
2022-08-05T16:21:58.750Z,51.19
2022-08-05T16:24:40.744Z,50.36
2022-08-05T16:27:03.233Z,50.64
2022-08-05T16:29:37.086Z,51.39
2022-08-05T16:32:07.632Z,51.21
2022-08-05T16:34:37.228Z,51.77
2022-08-05T16:38:01.885Z,51.25
2022-08-05T16:40:06.643Z,50.54
2022-08-05T16:42:35.831Z,50.79
2022-08-05T16:45:05.997Z,50.39
2022-08-05T16:47:54.165Z,50.61
2022-08-05T16:50:22.727Z,47.60
2022-08-05T16:52:49.669Z,46.96
2022-08-05T16:55:16.786Z,47.95
2022-08-05T16:58:00.380Z,46.32
2022-08-05T17:00:35.114Z,46.42
2022-08-05T17:03:15.445Z,46.82
2022-08-05T17:05:51.513Z,50.12
2022-08-05T17:08:35.821Z,51.64
2022-08-05T17:11:16.495Z,50.72
2022-08-05T17:13:45.354Z,51.23
2022-08-05T17:16:33.118Z,51.13
2022-08-05T17:19:00.097Z,50.55
2022-08-05T17:21:35.785Z,49.93
2022-08-05T17:24:20.510Z,50.88
2022-08-05T17:26:52.909Z,51.49
2022-08-05T17:29:22.451Z,51.69
2022-08-05T17:31:58.259Z,51.51
2022-08-05T17:34:30.130Z,50.13
2022-08-05T17:37:00.512Z,51.12
2022-08-05T17:39:33.339Z,51.64
2022-08-05T17:42:19.728Z,50.91
2022-08-05T17:44:51.129Z,51.63
2022-08-05T17:47:23.722Z,51.77
2022-08-05T17:50:03.595Z,51.06
2022-08-05T17:52:34.993Z,51.20
2022-08-05T17:55:21.693Z,51.17
2022-08-05T17:57:50.308Z,51.22
2022-08-05T18:00:18.586Z,50.81
2022-08-05T18:02:47.609Z,50.69
2022-08-05T18:05:16.803Z,50.19
2022-08-05T18:07:44.920Z,48.56
2022-08-05T18:10:20.338Z,48.11
2022-08-05T18:12:49.446Z,47.56
2022-08-05T18:15:16.638Z,46.76
2022-08-05T18:18:00.750Z,47.53
2022-08-05T18:20:32.426Z,47.35
2022-08-05T18:23:09.256Z,47.01
2022-08-05T18:25:39.498Z,47.50
2022-08-05T18:28:11.120Z,47.64
2022-08-05T18:30:40.243Z,47.47
2022-08-05T18:33:08.751Z,47.29
2022-08-05T18:36:01.154Z,47.12
2022-08-05T18:38:29.335Z,47.11
2022-08-05T18:41:57.045Z,46.21
2022-08-05T18:43:49.107Z,45.94
2022-08-05T18:46:19.955Z,45.96
2022-08-05T18:48:52.093Z,45.76
2022-08-05T18:52:04.279Z,46.01
2022-08-05T18:54:31.055Z,48.20
2022-08-05T18:57:01.068Z,47.92
2022-08-05T18:59:43.522Z,47.87
2022-08-05T19:02:28.226Z,49.72
2022-08-05T19:05:02.614Z,47.86
2022-08-05T19:07:46.630Z,47.53
2022-08-05T19:10:19.129Z,46.36
2022-08-05T19:12:55.346Z,47.02
2022-08-05T19:15:57.442Z,47.41
2022-08-05T19:18:13.655Z,47.57
2022-08-05T19:20:52.579Z,47.61
2022-08-05T19:24:04.350Z,47.68
2022-08-05T19:26:09.546Z,47.35
2022-08-05T19:28:43.587Z,48.68
2022-08-05T19:31:15.006Z,49.00
2022-08-05T19:33:48.598Z,48.52
2022-08-05T19:36:29.393Z,49.73
2022-08-05T19:39:00.984Z,48.66
2022-08-05T19:42:05.690Z,48.68
2022-08-05T19:44:16.885Z,48.71
2022-08-05T19:46:45.986Z,48.22
2022-08-05T19:49:17.048Z,48.81
2022-08-05T19:52:08.682Z,47.72
2022-08-05T19:54:34.268Z,47.18
2022-08-05T19:57:08.395Z,47.26
2022-08-05T19:59:54.727Z,46.55
2022-08-05T20:02:26.979Z,47.04
2022-08-05T20:04:58.705Z,48.50
2022-08-05T20:07:47.183Z,48.83
2022-08-05T20:10:15.890Z,48.40
2022-08-05T20:12:46.180Z,50.02
2022-08-05T20:15:48.468Z,50.43
2022-08-05T20:18:10.304Z,50.64
2022-08-05T20:20:57.310Z,51.18
2022-08-05T20:23:39.398Z,50.80
2022-08-05T20:26:17.148Z,51.10
2022-08-05T20:28:55.834Z,51.47
2022-08-05T20:31:37.023Z,51.49
2022-08-05T20:34:13.014Z,51.77
2022-08-05T20:36:43.002Z,51.40
2022-08-05T20:39:13.856Z,52.33
2022-08-05T20:41:45.438Z,52.34
2022-08-05T20:44:29.238Z,52.23
2022-08-05T20:47:03.215Z,52.38
2022-08-05T20:49:38.077Z,52.52
2022-08-05T20:52:08.262Z,52.56
2022-08-05T20:54:43.261Z,52.63
2022-08-05T20:57:24.704Z,52.84
2022-08-05T21:00:41.322Z,52.98
2022-08-05T21:03:06.727Z,53.23
2022-08-05T21:05:48.183Z,53.63
2022-08-05T21:08:26.690Z,53.41
2022-08-05T21:11:00.199Z,53.61
2022-08-05T21:13:47.855Z,53.74
2022-08-05T21:16:19.993Z,53.80
2022-08-05T21:18:47.072Z,53.98
2022-08-05T21:21:14.703Z,53.73
2022-08-05T21:23:42.762Z,53.89
2022-08-05T21:26:14.357Z,53.99
2022-08-05T21:28:50.625Z,54.08
2022-08-05T21:31:19.892Z,54.20
2022-08-05T21:33:49.368Z,54.17
2022-08-05T21:36:27.754Z,54.34
2022-08-05T21:38:57.491Z,54.50
2022-08-05T21:41:32.943Z,54.12
2022-08-05T21:44:04.412Z,54.37
2022-08-05T21:46:34.507Z,54.37
2022-08-05T21:49:07.130Z,54.35
2022-08-05T21:52:21.786Z,54.45
2022-08-05T21:54:28.071Z,54.72
2022-08-05T21:57:29.812Z,54.72
2022-08-05T22:00:03.188Z,54.31
2022-08-05T22:02:32.746Z,54.62
2022-08-05T22:05:00.707Z,54.75
2022-08-05T22:07:39.801Z,54.77
2022-08-05T22:10:25.475Z,54.80
2022-08-05T22:12:55.341Z,54.87
2022-08-05T22:16:00.595Z,55.15
2022-08-05T22:18:12.958Z,54.86
2022-08-05T22:20:42.875Z,54.82
2022-08-05T22:24:01.214Z,54.90
2022-08-05T22:26:35.862Z,55.06
2022-08-05T22:29:03.854Z,55.21
2022-08-05T22:31:31.018Z,55.23
2022-08-05T22:34:11.600Z,54.88
2022-08-05T22:36:48.205Z,55.27
2022-08-05T22:39:21.402Z,55.08
2022-08-05T22:42:11.315Z,55.28
2022-08-05T22:44:35.966Z,55.15
2022-08-05T22:47:05.101Z,55.22
2022-08-05T22:50:20.850Z,55.03
2022-08-05T22:52:22.751Z,55.21
2022-08-05T22:54:59.232Z,55.32
2022-08-05T22:57:26.980Z,55.26
2022-08-05T23:00:02.899Z,55.19
2022-08-05T23:02:30.389Z,55.39
2022-08-05T23:05:02.023Z,55.36
2022-08-05T23:07:32.638Z,55.47
2022-08-05T23:10:11.225Z,55.60
2022-08-05T23:12:38.468Z,55.79
2022-08-05T23:15:09.077Z,55.76
2022-08-05T23:17:37.909Z,55.74
2022-08-05T23:20:24.500Z,55.71
2022-08-05T23:22:56.071Z,55.78
2022-08-05T23:25:53.471Z,55.98
2022-08-05T23:28:11.938Z,55.59
2022-08-05T23:30:43.563Z,55.85
2022-08-05T23:33:22.511Z,55.76
2022-08-05T23:35:55.911Z,55.74
2022-08-05T23:38:24.550Z,55.83
2022-08-05T23:40:52.684Z,55.96
2022-08-05T23:43:24.857Z,55.97
2022-08-05T23:46:19.602Z,55.86
2022-08-05T23:49:01.171Z,55.93
2022-08-05T23:51:55.042Z,55.95
2022-08-05T23:54:30.158Z,55.80
2022-08-05T23:57:03.904Z,56.20
